createdAt,value
2023-04-30T00:01:05.983Z,88.25
2023-04-30T00:03:56.295Z,88.25
2023-04-30T00:06:46.495Z,88.12
2023-04-30T00:09:36.664Z,88.06
2023-04-30T00:12:26.978Z,88.10
2023-04-30T00:15:17.021Z,88.39
2023-04-30T00:18:07.440Z,88.41
2023-04-30T00:20:58.164Z,88.55
2023-04-30T00:23:48.604Z,88.76
2023-04-30T00:26:39.923Z,88.77
2023-04-30T00:29:30.087Z,88.71
2023-04-30T00:32:20.561Z,89.05
2023-04-30T00:35:13.872Z,89.07
2023-04-30T00:38:10.655Z,88.52
2023-04-30T00:41:06.036Z,88.95
2023-04-30T00:44:21.029Z,88.79
2023-04-30T00:47:19.802Z,88.88
2023-04-30T00:50:11.361Z,89.65
2023-04-30T00:53:07.345Z,88.99
2023-04-30T00:56:00.399Z,88.61
2023-04-30T00:58:51.603Z,88.68
2023-04-30T01:01:45.355Z,89.35
2023-04-30T01:04:41.827Z,88.99
2023-04-30T01:07:32.820Z,89.03
2023-04-30T01:10:24.428Z,89.79
2023-04-30T01:13:19.283Z,90.22
2023-04-30T01:16:14.187Z,90.12
2023-04-30T01:19:07.305Z,90.03
2023-04-30T01:21:58.727Z,90.37
2023-04-30T01:25:00.564Z,91.39
2023-04-30T01:28:02.911Z,91.74
2023-04-30T01:30:53.400Z,92.12
2023-04-30T01:33:44.030Z,92.09
2023-04-30T01:36:45.776Z,92.28
2023-04-30T01:39:48.314Z,92.11
2023-04-30T01:42:43.050Z,92.16
2023-04-30T01:45:42.994Z,92.32
2023-04-30T01:48:41.252Z,92.85
2023-04-30T01:51:33.762Z,93.40
2023-04-30T01:54:34.158Z,93.55
2023-04-30T01:57:30.205Z,94.14
2023-04-30T02:00:20.794Z,94.54
2023-04-30T02:03:11.200Z,94.74
2023-04-30T02:06:01.761Z,94.01
2023-04-30T02:08:52.717Z,93.22
2023-04-30T02:11:43.170Z,92.93
2023-04-30T02:18:26.276Z,93.70
2023-04-30T02:21:25.513Z,93.82
2023-04-30T02:24:16.472Z,93.71
2023-04-30T02:27:09.002Z,93.70
2023-04-30T02:29:59.906Z,94.12
2023-04-30T02:32:50.139Z,94.22
2023-04-30T02:35:42.296Z,94.36
2023-04-30T02:38:32.546Z,94.39
2023-04-30T02:41:22.968Z,94.23
2023-04-30T02:44:13.204Z,94.42
2023-04-30T02:47:03.718Z,94.76
2023-04-30T02:49:55.070Z,95.06
2023-04-30T02:52:46.023Z,95.32
2023-04-30T02:55:36.313Z,95.91
2023-04-30T02:58:27.572Z,96.07
2023-04-30T03:01:17.923Z,96.24
2023-04-30T03:04:08.108Z,96.41
2023-04-30T03:06:58.334Z,97.07
2023-04-30T03:09:48.821Z,97.14
2023-04-30T03:12:39.234Z,97.23
2023-04-30T03:15:29.512Z,97.44
2023-04-30T03:18:20.143Z,97.92
2023-04-30T03:21:10.943Z,98.40
2023-04-30T03:24:01.062Z,98.77
2023-04-30T03:26:51.893Z,98.98
2023-04-30T03:29:42.406Z,99.48
2023-04-30T03:32:32.997Z,99.64
2023-04-30T03:35:23.439Z,99.34
2023-04-30T03:38:13.718Z,98.98
2023-04-30T03:41:04.059Z,98.81
2023-04-30T03:43:54.689Z,99.31
2023-04-30T03:46:45.093Z,99.62
2023-04-30T03:49:36.208Z,99.97
2023-04-30T03:52:28.584Z,100.00
2023-04-30T03:55:24.044Z,99.85
2023-04-30T03:58:34.088Z,99.55
2023-04-30T04:01:56.630Z,99.85
2023-04-30T04:04:55.553Z,99.93
2023-04-30T04:08:25.139Z,99.69
2023-04-30T04:15:21.139Z,99.02
2023-04-30T04:18:39.287Z,98.98
2023-04-30T04:21:57.376Z,98.55
2023-04-30T04:25:09.534Z,98.69
2023-04-30T04:31:42.920Z,98.50
2023-04-30T04:34:47.273Z,98.82
2023-04-30T04:37:43.639Z,98.98
2023-04-30T04:40:43.968Z,98.52
2023-04-30T04:44:06.999Z,98.71
2023-04-30T04:47:04.428Z,98.51
2023-04-30T04:50:23.647Z,98.70
2023-04-30T04:53:44.420Z,98.46
2023-04-30T04:56:37.159Z,98.39
2023-04-30T04:59:27.962Z,98.50
2023-04-30T05:02:18.448Z,97.88
2023-04-30T05:05:27.320Z,97.96
2023-04-30T05:08:27.589Z,98.18
2023-04-30T05:11:27.120Z,98.19
2023-04-30T05:14:39.082Z,97.79
2023-04-30T05:17:33.101Z,97.94
2023-04-30T05:20:45.963Z,97.50
2023-04-30T05:23:46.790Z,97.12
2023-04-30T05:26:45.945Z,96.47
2023-04-30T05:30:17.213Z,95.98
2023-04-30T05:33:33.135Z,95.92
2023-04-30T05:36:23.268Z,95.87
2023-04-30T05:42:30.340Z,96.60
2023-04-30T05:45:22.131Z,96.62
2023-04-30T05:48:12.415Z,96.32
2023-04-30T05:51:23.542Z,96.47
2023-04-30T05:54:32.015Z,96.28
2023-04-30T05:57:30.014Z,96.48
2023-04-30T06:00:44.672Z,96.47
2023-04-30T06:04:12.091Z,96.41
2023-04-30T06:07:13.277Z,96.39
2023-04-30T06:13:34.743Z,95.69
2023-04-30T06:16:39.391Z,95.74
2023-04-30T06:19:29.692Z,95.87
2023-04-30T06:22:27.667Z,95.94
2023-04-30T06:25:17.841Z,95.87
2023-04-30T06:28:14.662Z,95.39
2023-04-30T06:34:31.801Z,95.32
2023-04-30T06:37:27.095Z,94.97
2023-04-30T06:43:34.840Z,94.79
2023-04-30T06:46:28.574Z,94.69
2023-04-30T06:49:42.477Z,94.37
2023-04-30T06:52:36.091Z,93.96
2023-04-30T06:58:57.865Z,94.10
2023-04-30T07:05:07.403Z,94.23
2023-04-30T07:08:15.699Z,93.57
2023-04-30T07:11:21.657Z,92.74
2023-04-30T07:14:22.155Z,91.98
2023-04-30T07:17:22.331Z,91.16
2023-04-30T07:20:18.349Z,90.63
2023-04-30T07:23:10.245Z,90.48
2023-04-30T07:26:06.027Z,89.94
2023-04-30T07:29:12.158Z,89.63
2023-04-30T07:32:11.188Z,89.86
2023-04-30T07:35:15.680Z,89.42
2023-04-30T07:38:19.109Z,88.97
2023-04-30T07:44:39.370Z,88.02
2023-04-30T07:47:40.396Z,86.52
2023-04-30T07:50:36.733Z,86.03
2023-04-30T07:53:33.771Z,85.31
2023-04-30T07:56:31.511Z,84.71
2023-04-30T07:59:32.591Z,84.43
2023-04-30T08:02:31.541Z,83.95
2023-04-30T08:05:25.640Z,84.50
2023-04-30T08:08:24.013Z,84.42
2023-04-30T08:11:19.670Z,84.21
2023-04-30T08:14:13.043Z,83.31
2023-04-30T08:17:14.118Z,83.23
2023-04-30T08:20:14.063Z,82.90
2023-04-30T08:23:07.216Z,81.92
2023-04-30T08:26:06.938Z,81.51
2023-04-30T08:32:39.380Z,80.27
2023-04-30T08:35:38.756Z,80.17
2023-04-30T08:38:41.325Z,78.60
2023-04-30T08:41:54.490Z,76.12
2023-04-30T08:44:55.151Z,75.65
2023-04-30T08:47:52.900Z,74.94
2023-04-30T08:50:45.546Z,74.55
2023-04-30T08:53:42.062Z,73.81
2023-04-30T08:56:42.761Z,72.95
2023-04-30T08:59:46.270Z,71.04
2023-04-30T09:02:41.592Z,69.73
2023-04-30T09:05:43.031Z,67.66
2023-04-30T09:08:47.827Z,63.85
2023-04-30T09:11:51.132Z,61.96
2023-04-30T09:14:58.353Z,59.60
2023-04-30T09:17:51.551Z,55.61
2023-04-30T09:20:56.449Z,53.17
2023-04-30T09:24:00.299Z,51.94
2023-04-30T09:26:50.931Z,48.88
2023-04-30T09:29:41.202Z,47.23
2023-04-30T09:32:31.389Z,46.68
2023-04-30T09:35:31.430Z,45.28
2023-04-30T09:38:28.833Z,43.29
2023-04-30T09:41:26.430Z,42.34
2023-04-30T09:44:32.699Z,42.11
2023-04-30T09:47:23.111Z,41.41
2023-04-30T09:50:14.888Z,40.44
2023-04-30T09:53:09.138Z,39.13
2023-04-30T09:55:59.844Z,39.14
2023-04-30T09:58:51.775Z,39.46
2023-04-30T10:01:42.224Z,38.85
2023-04-30T10:04:35.221Z,38.20
2023-04-30T10:07:26.428Z,38.40
2023-04-30T10:10:16.836Z,37.82
2023-04-30T10:13:11.169Z,36.08
2023-04-30T10:16:05.802Z,34.79
2023-04-30T10:18:59.473Z,35.03
2023-04-30T10:21:50.285Z,36.85
2023-04-30T10:24:40.960Z,38.79
2023-04-30T10:27:31.601Z,39.62
2023-04-30T10:30:23.168Z,40.26
2023-04-30T10:33:17.402Z,41.57
2023-04-30T10:36:09.377Z,43.24
2023-04-30T10:39:00.106Z,42.22
2023-04-30T10:41:50.270Z,42.48
2023-04-30T10:44:40.768Z,42.84
2023-04-30T10:47:31.594Z,43.08
2023-04-30T10:50:25.312Z,43.65
2023-04-30T10:53:17.253Z,44.13
2023-04-30T10:56:10.465Z,45.36
2023-04-30T10:59:02.485Z,46.36
2023-04-30T11:02:00.189Z,46.69
2023-04-30T11:05:07.678Z,46.53
2023-04-30T11:07:59.778Z,46.59
2023-04-30T11:11:00.279Z,46.95
2023-04-30T11:14:00.348Z,45.39
2023-04-30T11:16:52.155Z,41.68
2023-04-30T11:19:49.908Z,38.71
2023-04-30T11:22:40.064Z,36.61
2023-04-30T11:25:40.626Z,34.20
2023-04-30T11:28:31.941Z,32.92
2023-04-30T11:31:22.338Z,31.32
2023-04-30T11:34:13.753Z,30.91
2023-04-30T11:37:04.633Z,30.47
2023-04-30T11:39:55.063Z,29.86
2023-04-30T11:42:46.703Z,30.53
2023-04-30T11:45:36.923Z,31.45
2023-04-30T11:48:31.709Z,31.97
2023-04-30T11:51:22.568Z,33.23
2023-04-30T11:54:16.161Z,36.18
2023-04-30T11:57:06.559Z,39.20
2023-04-30T11:59:57.018Z,42.24
2023-04-30T12:02:48.212Z,44.32
2023-04-30T12:05:42.072Z,46.40
2023-04-30T12:08:33.030Z,48.95
2023-04-30T12:11:25.643Z,51.37
2023-04-30T12:14:16.229Z,52.69
2023-04-30T12:17:06.533Z,54.22
2023-04-30T12:19:56.875Z,55.72
2023-04-30T12:22:47.389Z,56.65
2023-04-30T12:25:44.052Z,57.16
2023-04-30T12:28:35.628Z,57.82
2023-04-30T12:31:26.020Z,57.58
2023-04-30T12:34:17.298Z,57.38
2023-04-30T12:37:07.907Z,57.31
2023-04-30T12:39:58.408Z,55.51
2023-04-30T12:42:49.416Z,51.28
2023-04-30T12:45:51.604Z,48.46
2023-04-30T12:48:46.030Z,45.06
2023-04-30T12:51:36.369Z,42.76
2023-04-30T12:54:30.266Z,43.36
2023-04-30T12:57:20.752Z,44.04
2023-04-30T13:00:11.893Z,44.06
2023-04-30T13:03:02.219Z,44.87
2023-04-30T13:05:53.061Z,44.54
2023-04-30T13:08:57.119Z,41.87
2023-04-30T13:11:48.569Z,39.52
2023-04-30T13:14:39.182Z,38.33
2023-04-30T13:17:29.531Z,36.61
2023-04-30T13:23:53.415Z,33.90
2023-04-30T13:26:45.468Z,34.04
2023-04-30T13:29:35.794Z,36.15
2023-04-30T13:32:26.115Z,38.57
2023-04-30T13:35:16.607Z,40.21
2023-04-30T13:38:06.915Z,41.31
2023-04-30T13:40:57.234Z,40.68
2023-04-30T13:43:48.646Z,39.10
2023-04-30T13:46:38.992Z,37.34
2023-04-30T13:49:29.354Z,36.11
2023-04-30T13:52:20.214Z,34.78
2023-04-30T13:55:11.246Z,34.67
2023-04-30T13:58:01.630Z,34.06
2023-04-30T14:00:52.336Z,35.04
2023-04-30T14:03:42.749Z,36.50
2023-04-30T14:06:33.188Z,37.53
2023-04-30T14:09:23.828Z,38.54
2023-04-30T14:12:14.312Z,40.06
2023-04-30T14:15:05.934Z,41.22
2023-04-30T14:17:56.215Z,42.33
2023-04-30T14:20:46.423Z,43.26
2023-04-30T14:23:36.782Z,44.04
2023-04-30T14:26:26.980Z,44.50
2023-04-30T14:29:20.456Z,44.29
2023-04-30T14:32:12.031Z,44.99
2023-04-30T14:35:02.803Z,44.42
2023-04-30T14:37:53.233Z,42.43
2023-04-30T14:40:44.144Z,41.80
2023-04-30T14:43:34.383Z,41.81
2023-04-30T14:46:24.698Z,42.33
2023-04-30T14:49:15.170Z,42.61
2023-04-30T14:52:05.423Z,43.24
2023-04-30T14:54:56.211Z,44.20
2023-04-30T14:57:46.527Z,44.51
2023-04-30T15:00:36.903Z,44.16
2023-04-30T15:03:27.257Z,43.97
2023-04-30T15:06:18.049Z,43.72
2023-04-30T15:09:08.343Z,43.36
2023-04-30T15:11:58.699Z,43.42
2023-04-30T15:14:48.974Z,43.75
2023-04-30T15:17:39.303Z,43.80
2023-04-30T15:20:29.548Z,44.10
2023-04-30T15:23:19.829Z,44.00
2023-04-30T15:26:10.252Z,44.20
2023-04-30T15:29:00.465Z,44.05
2023-04-30T15:31:52.111Z,44.13
2023-04-30T15:34:45.328Z,44.64
2023-04-30T15:37:35.822Z,45.39
2023-04-30T15:40:26.160Z,45.92
2023-04-30T15:43:19.494Z,46.63
2023-04-30T15:46:09.906Z,48.37
2023-04-30T15:49:00.367Z,50.36
2023-04-30T15:51:50.460Z,51.94
2023-04-30T15:54:41.316Z,53.39
2023-04-30T15:57:31.513Z,53.72
2023-04-30T16:00:23.527Z,53.10
2023-04-30T16:03:14.710Z,53.24
2023-04-30T16:06:05.076Z,52.81
2023-04-30T16:08:55.364Z,53.07
2023-04-30T16:11:45.498Z,53.18
2023-04-30T16:14:35.709Z,52.97
2023-04-30T16:17:26.949Z,52.39
2023-04-30T16:20:20.539Z,51.32
2023-04-30T16:23:11.317Z,50.83
2023-04-30T16:26:01.666Z,51.16
2023-04-30T16:28:51.957Z,51.38
2023-04-30T16:31:42.826Z,51.82
2023-04-30T16:34:33.064Z,52.20
2023-04-30T16:37:23.305Z,52.46
2023-04-30T16:40:17.160Z,51.90
2023-04-30T16:43:08.238Z,51.86
2023-04-30T16:45:58.511Z,51.75
2023-04-30T16:48:49.544Z,51.59
2023-04-30T16:51:40.098Z,51.67
2023-04-30T16:54:30.340Z,51.71
2023-04-30T16:57:21.251Z,52.04
2023-04-30T17:00:14.251Z,52.32
2023-04-30T17:03:05.624Z,53.14
2023-04-30T17:05:56.020Z,53.71
2023-04-30T17:08:46.247Z,53.65
2023-04-30T17:11:36.507Z,53.48
2023-04-30T17:14:26.836Z,53.83
2023-04-30T17:17:17.212Z,54.48
2023-04-30T17:20:08.693Z,55.05
2023-04-30T17:22:59.425Z,55.72
2023-04-30T17:25:49.622Z,55.88
2023-04-30T17:28:40.068Z,55.89
2023-04-30T17:31:31.645Z,55.83
2023-04-30T17:34:21.894Z,55.80
2023-04-30T17:37:12.180Z,55.75
2023-04-30T17:40:02.375Z,55.51
2023-04-30T17:42:52.625Z,55.56
2023-04-30T17:45:44.363Z,55.67
2023-04-30T17:48:34.718Z,55.19
2023-04-30T17:51:29.430Z,54.07
2023-04-30T17:54:20.199Z,54.22
2023-04-30T17:57:10.371Z,54.36
2023-04-30T18:00:01.369Z,54.35
2023-04-30T18:02:52.381Z,54.08
2023-04-30T18:05:42.762Z,53.99
2023-04-30T18:08:34.059Z,54.09
2023-04-30T18:11:24.385Z,54.29
2023-04-30T18:14:14.689Z,54.47
2023-04-30T18:17:05.055Z,54.55
2023-04-30T18:19:55.532Z,54.96
2023-04-30T18:22:46.009Z,55.30
2023-04-30T18:25:37.173Z,55.54
2023-04-30T18:28:27.783Z,55.73
2023-04-30T18:31:18.214Z,56.31
2023-04-30T18:34:08.583Z,56.73
2023-04-30T18:36:59.080Z,57.23
2023-04-30T18:39:51.373Z,57.75
2023-04-30T18:42:41.626Z,58.14
2023-04-30T18:45:32.084Z,58.29
2023-04-30T18:48:23.150Z,58.66
2023-04-30T18:51:13.462Z,59.08
2023-04-30T18:54:04.039Z,59.41
2023-04-30T18:56:54.580Z,59.75
2023-04-30T18:59:45.208Z,60.22
2023-04-30T19:02:36.167Z,60.52
2023-04-30T19:05:26.715Z,60.79
2023-04-30T19:08:17.040Z,60.87
2023-04-30T19:11:07.643Z,61.21
2023-04-30T19:13:58.684Z,61.48
2023-04-30T19:16:49.179Z,61.73
2023-04-30T19:19:39.808Z,62.13
2023-04-30T19:22:30.113Z,62.38
2023-04-30T19:25:24.062Z,62.81
2023-04-30T19:28:15.713Z,63.25
2023-04-30T19:31:06.163Z,63.74
2023-04-30T19:33:56.438Z,64.29
2023-04-30T19:36:47.712Z,64.82
2023-04-30T19:39:38.098Z,65.41
2023-04-30T19:42:30.371Z,66.13
2023-04-30T19:45:21.367Z,67.04
2023-04-30T19:48:13.466Z,67.60
2023-04-30T19:51:05.703Z,68.16
2023-04-30T19:53:57.514Z,69.05
2023-04-30T19:56:47.826Z,69.53
2023-04-30T19:59:38.707Z,70.07
2023-04-30T20:02:29.317Z,70.03
2023-04-30T20:05:20.092Z,70.61
2023-04-30T20:08:10.960Z,70.64
2023-04-30T20:11:03.253Z,71.02
2023-04-30T20:13:55.512Z,71.36
2023-04-30T20:16:46.398Z,71.54
2023-04-30T20:19:37.221Z,72.07
2023-04-30T20:22:27.655Z,72.34
2023-04-30T20:25:17.904Z,72.95
2023-04-30T20:28:08.274Z,73.61
2023-04-30T20:30:58.730Z,74.05
2023-04-30T20:33:49.491Z,74.26
2023-04-30T20:36:40.133Z,74.67
2023-04-30T20:39:30.449Z,74.89
2023-04-30T20:42:20.821Z,75.44
2023-04-30T20:45:12.370Z,75.50
2023-04-30T20:48:03.021Z,75.52
2023-04-30T20:50:53.346Z,76.01
2023-04-30T20:53:43.638Z,76.31
2023-04-30T20:56:33.834Z,76.65
2023-04-30T20:59:24.152Z,76.85
2023-04-30T21:02:14.930Z,77.01
2023-04-30T21:05:06.241Z,77.29
2023-04-30T21:08:01.940Z,77.23
2023-04-30T21:11:01.973Z,77.36
2023-04-30T21:13:52.303Z,77.40
2023-04-30T21:16:43.903Z,77.61
2023-04-30T21:19:34.218Z,77.69
2023-04-30T21:22:24.743Z,77.79
2023-04-30T21:25:15.057Z,77.83
2023-04-30T21:28:05.514Z,78.07
2023-04-30T21:30:55.990Z,78.03
2023-04-30T21:33:46.525Z,78.28
2023-04-30T21:36:39.866Z,78.57
2023-04-30T21:39:30.680Z,78.71
2023-04-30T21:42:20.909Z,78.83
2023-04-30T21:45:11.600Z,79.00
2023-04-30T21:48:02.295Z,79.21
2023-04-30T21:50:52.720Z,79.42
2023-04-30T21:53:43.263Z,79.76
2023-04-30T21:56:33.657Z,79.97
2023-04-30T21:59:24.958Z,79.99
2023-04-30T22:02:23.990Z,80.19
2023-04-30T22:05:15.161Z,80.52
2023-04-30T22:08:05.837Z,80.71
2023-04-30T22:10:58.571Z,81.08
2023-04-30T22:13:48.905Z,81.03
2023-04-30T22:16:39.199Z,81.22
2023-04-30T22:19:29.869Z,81.40
2023-04-30T22:22:20.168Z,81.33
2023-04-30T22:25:11.464Z,81.41
2023-04-30T22:28:01.928Z,81.58
2023-04-30T22:30:58.992Z,81.83
2023-04-30T22:33:52.316Z,81.87
2023-04-30T22:36:46.456Z,82.05
2023-04-30T22:39:36.928Z,82.25
2023-04-30T22:42:27.754Z,82.35
2023-04-30T22:45:18.209Z,82.42
2023-04-30T22:48:09.921Z,82.50
2023-04-30T22:51:00.720Z,82.53
2023-04-30T22:53:51.286Z,82.78
2023-04-30T22:56:41.610Z,82.78
2023-04-30T22:59:31.887Z,82.93
2023-04-30T23:02:26.437Z,82.96
2023-04-30T23:05:17.467Z,83.01
2023-04-30T23:08:32.695Z,82.99
2023-04-30T23:11:28.112Z,83.15
2023-04-30T23:18:07.238Z,83.25
2023-04-30T23:20:59.043Z,83.48
2023-04-30T23:23:49.775Z,83.65
2023-04-30T23:26:40.503Z,83.93
2023-04-30T23:29:30.976Z,83.88
2023-04-30T23:32:21.343Z,83.96
2023-04-30T23:35:14.806Z,84.23
2023-04-30T23:38:05.032Z,84.28
2023-04-30T23:40:56.593Z,84.47
2023-04-30T23:43:46.898Z,84.60
2023-04-30T23:46:37.357Z,84.84
2023-04-30T23:49:27.702Z,85.10
2023-04-30T23:52:23.843Z,85.53
2023-04-30T23:55:14.153Z,85.44
2023-04-30T23:58:06.804Z,85.45
